»·PEaware :: N1399 KAWO-KPDX

N1399 :: KAWO-KPDX

FLIGHT INFORMATION

Flight Status: Arrived
Operator: Privately registered:
United States
More flights under this callsign
Pilot: David C. (16084)
Aircraft: ECLIPSE 500
(EA50)
More flights by this aircraft type
Origin: KAWO Arlington Mun
United States
Destination: KPDX Portland Intl
United States
More flights between these airports :: More routes between these airports
Route: BUWZO KRATR2
File this flight plan on PilotEdge
Remarks:
Altitude:
(Current/Filed)
22,000ft
Speed:
(Current/Filed)
352kts
Departed: 12-Mar-18 08:39 AM
Arrived: 12-Mar-18 09:19 AM
Distance/Time
Traveled:
155nm/0:40
Distance/Time
To Go:
Arrived

Flight Plot

Page will automatically refresh every two minutes.

Flight plan parsing failed; only flown route is shown


Map Options




Map Legend


Flown Route
Filed Route
Departure Airport
Arrival Airport
Navaid (VOR, NDB)
Fix

Horizontal Profiles

Position Reports

Time Latitude Longitude Heading Altitude Ground
Speed
12-Mar-18 08:22 48.159559 -122.153237 270 144ft 0kts
12-Mar-18 08:23 48.159559 -122.153237 270 144ft 0kts
12-Mar-18 08:24 48.159559 -122.153237 270 144ft 0kts
12-Mar-18 08:25 48.159559 -122.153237 270 144ft 0kts
12-Mar-18 08:26 48.159559 -122.153237 270 144ft 0kts
12-Mar-18 08:27 48.159559 -122.153237 270 144ft 0kts
12-Mar-18 08:28 48.159559 -122.153237 270 144ft 0kts
12-Mar-18 08:29 48.159559 -122.153237 270 144ft 0kts
12-Mar-18 08:30 48.159559 -122.153237 270 144ft 0kts
12-Mar-18 08:31 48.159559 -122.153306 273 144ft 0kts
12-Mar-18 08:32 48.159572 -122.154262 178 144ft 11kts
12-Mar-18 08:33 48.155788 -122.154184 185 144ft 7kts
12-Mar-18 08:34 48.155552 -122.155095 269 144ft 0kts
12-Mar-18 08:35 48.155552 -122.155095 269 144ft 0kts
12-Mar-18 08:36 48.155551 -122.155169 269 144ft 4kts
12-Mar-18 08:37 48.155811 -122.156197 357 144ft 0kts
12-Mar-18 08:38 48.170154 -122.156530 357 503ft 132kts
12-Mar-18 08:39 48.196334 -122.190649 265 3235ft 173kts
12-Mar-18 08:40 48.191114 -122.265228 265 6147ft 190kts
12-Mar-18 08:41 48.187151 -122.344752 265 8845ft 201kts
12-Mar-18 08:42 48.152134 -122.381033 175 11507ft 181kts
12-Mar-18 08:43 48.101666 -122.377865 177 13900ft 184kts
12-Mar-18 08:44 48.051545 -122.374816 178 16117ft 183kts
12-Mar-18 08:45 47.999886 -122.371689 178 18023ft 190kts
12-Mar-18 08:46 47.946647 -122.368476 179 19772ft 196kts
12-Mar-18 08:47 47.892281 -122.365201 179 21378ft 202kts
12-Mar-18 08:48 47.832903 -122.361667 179 22161ft 243kts
12-Mar-18 08:49 47.761949 -122.357416 179 22155ft 296kts
12-Mar-18 08:50 47.674584 -122.352160 179 22147ft 331kts
12-Mar-18 08:51 47.579954 -122.346487 178 22145ft 350kts
12-Mar-18 08:52 47.482795 -122.340692 178 22143ft 352kts
12-Mar-18 08:53 47.384310 -122.334853 178 22137ft 355kts
12-Mar-18 08:54 47.285751 -122.329026 178 22131ft 355kts
12-Mar-18 08:55 47.187494 -122.323243 178 22123ft 354kts
12-Mar-18 08:56 47.089288 -122.317480 178 22122ft 354kts
12-Mar-18 08:57 46.990982 -122.311733 178 22120ft 354kts
12-Mar-18 08:58 46.893994 -122.309609 181 22118ft 353kts
12-Mar-18 08:59 46.798384 -122.309505 181 22120ft 353kts
12-Mar-18 09:00 46.700870 -122.309480 181 22119ft 352kts
12-Mar-18 09:01 46.603966 -122.309473 181 22122ft 352kts
12-Mar-18 09:02 46.507098 -122.309472 181 22122ft 352kts
12-Mar-18 09:03 46.409840 -122.309471 181 22118ft 352kts
12-Mar-18 09:04 46.312045 -122.309474 181 22114ft 353kts
12-Mar-18 09:05 46.217064 -122.334074 199 22111ft 351kts
12-Mar-18 09:06 46.125824 -122.383144 200 21715ft 350kts
12-Mar-18 09:07 46.043433 -122.428119 200 20104ft 295kts
12-Mar-18 09:08 45.970230 -122.467317 199 17874ft 257kts
12-Mar-18 09:09 45.912680 -122.513881 217 15486ft 235kts
12-Mar-18 09:10 45.864492 -122.573287 217 13006ft 228kts
12-Mar-18 09:11 45.817429 -122.631895 219 10518ft 226kts
12-Mar-18 09:12 45.766093 -122.679188 209 7940ft 222kts
12-Mar-18 09:13 45.712239 -122.720186 209 5135ft 220kts
12-Mar-18 09:14 45.657258 -122.745007 150 2342ft 220kts
12-Mar-18 09:15 45.628729 -122.682546 118 1412ft 165kts
12-Mar-18 09:16 45.609989 -122.634439 117 656ft 112kts
12-Mar-18 09:17 45.595675 -122.597799 116 105ft 100kts
12-Mar-18 09:18 45.588476 -122.582360 210 32ft 11kts
12-Mar-18 09:19 45.587412 -122.584126 298 32ft 0kts

Navigation Log

Ident Type
Flight plan parsing failed, navigation log unavailable